Time;durP1;ratioP1;P1;durP2;ratioP2;P2;SDS_P1;SDS_P2;PMS_P1;PMS_P2;Temp;Humidity;BMP_temperature;BMP_pressure;BME280_temperature;BME280_humidity;BME280_pressure;Samples;Min_cycle;Max_cycle;Signal;HPM_P1;HPM_P2
2022/05/13 11:07:13;;;;;;;10.60;2.10;;;18.00;84.50;;;;;;5070344;28;20485;-47
2022/05/13 11:09:40;;;;;;;7.82;2.22;;;18.10;85.50;;;;;;5069148;28;20045;-52
2022/05/13 11:12:06;;;;;;;10.30;2.22;;;18.00;84.50;;;;;;5069487;28;20041;-49
2022/05/13 11:14:34;;;;;;;10.23;3.08;;;18.10;84.50;;;;;;5068335;28;20044;-48
2022/05/13 11:17:01;;;;;;;11.25;2.53;;;18.10;84.90;;;;;;5069399;28;20131;-51
2022/05/13 11:19:28;;;;;;;11.35;2.47;;;18.40;84.70;;;;;;5069383;28;20052;-48
2022/05/13 11:21:54;;;;;;;7.75;2.53;;;18.70;81.80;;;;;;5067056;28;20452;-52
2022/05/13 11:27:06;;;;;;;11.65;2.45;;;18.80;81.80;;;;;;5068807;28;20040;-47
2022/05/13 11:29:33;;;;;;;9.77;2.30;;;18.70;80.40;;;;;;5067383;28;20485;-45
2022/05/13 11:32:01;;;;;;;12.07;2.47;;;18.60;82.40;;;;;;5069446;28;20052;-44
2022/05/13 11:34:28;;;;;;;5.50;2.10;;;18.70;80.60;;;;;;5069609;28;20063;-49
2022/05/13 11:36:55;;;;;;;10.18;2.67;;;18.90;81.50;;;;;;5069406;28;20048;-48
2022/05/13 11:39:21;;;;;;;9.70;2.17;;;19.00;80.90;;;;;;5069338;28;20549;-50
2022/05/13 11:41:48;;;;;;;7.05;2.15;;;19.00;81.10;;;;;;5069105;28;20044;-49
2022/05/13 11:44:34;;;;;;;11.43;2.55;;;19.10;80.40;;;;;;5069301;28;20037;-48
2022/05/13 11:47:01;;;;;;;7.40;2.30;;;19.00;79.70;;;;;;5069305;28;20091;-50
2022/05/13 11:49:29;;;;;;;7.90;2.28;;;19.00;80.60;;;;;;5069120;28;20048;-45
2022/05/13 11:51:55;;;;;;;11.63;2.50;;;19.00;78.90;;;;;;5069045;28;20376;-48
2022/05/13 11:54:22;;;;;;;9.55;2.65;;;19.10;78.90;;;;;;5069193;28;20376;-48
2022/05/13 11:56:49;;;;;;;7.43;2.00;;;19.00;79.30;;;;;;5069052;28;20045;-47
2022/05/13 11:59:16;;;;;;;50.22;40.20;;;19.00;79.80;;;;;;5068691;28;20083;-46
2022/05/13 12:01:43;;;;;;;9.18;3.35;;;19.00;79.00;;;;;;5068280;28;20045;-47
2022/05/13 12:04:10;;;;;;;12.10;2.60;;;19.00;78.40;;;;;;5068459;28;20049;-47
2022/05/13 12:06:37;;;;;;;10.20;2.42;;;19.00;78.70;;;;;;5067902;28;20056;-45
2022/05/13 12:09:03;;;;;;;9.75;2.40;;;19.00;79.50;;;;;;5066217;28;20047;-46
2022/05/13 12:11:34;;;;;;;10.68;2.38;;;19.00;78.40;;;;;;5067131;28;20446;-48
2022/05/13 12:14:00;;;;;;;9.18;2.35;;;19.10;79.50;;;;;;5068411;28;20094;-51
2022/05/13 12:16:27;;;;;;;8.50;2.42;;;19.20;79.00;;;;;;5058962;28;20049;-49
2022/05/13 12:18:54;;;;;;;10.65;3.00;;;19.10;78.80;;;;;;5040006;28;20080;-44
2022/05/13 12:21:21;;;;;;;8.95;2.47;;;19.00;78.50;;;;;;5035991;28;20045;-52
2022/05/13 12:23:47;;;;;;;7.97;1.85;;;19.00;78.60;;;;;;5035963;28;20091;-46
2022/05/13 12:26:14;;;;;;;10.32;2.47;;;19.00;79.90;;;;;;5036234;28;20037;-49
2022/05/13 12:28:41;;;;;;;12.98;2.60;;;19.00;78.40;;;;;;5034746;28;20578;-53
2022/05/13 12:31:08;;;;;;;10.75;2.50;;;19.00;78.40;;;;;;5039429;28;20043;-46
2022/05/13 12:33:35;;;;;;;8.15;2.20;;;18.90;78.40;;;;;;5035780;28;20037;-50
2022/05/13 12:38:53;;;;;;;10.90;2.15;;;18.80;79.10;;;;;;5050006;28;20041;-47
2022/05/13 12:41:20;;;;;;;9.43;2.35;;;18.80;79.20;;;;;;5054625;28;20051;-52
2022/05/13 12:43:46;;;;;;;10.35;2.13;;;18.90;79.10;;;;;;5050284;28;20041;-50
2022/05/13 12:46:13;;;;;;;6.32;2.00;;;19.00;78.80;;;;;;5054173;28;20400;-52
2022/05/13 12:48:40;;;;;;;8.88;2.20;;;19.00;80.00;;;;;;5054490;28;20519;-45
2022/05/13 12:51:07;;;;;;;6.78;2.30;;;19.00;78.70;;;;;;5054459;28;20036;-49
2022/05/13 12:53:34;;;;;;;8.35;2.20;;;19.10;79.30;;;;;;5040245;28;20041;-56
2022/05/13 12:56:03;;;;;;;7.90;2.17;;;19.10;78.40;;;;;;5035852;28;20045;-47
2022/05/13 12:58:30;;;;;;;9.93;2.38;;;19.00;79.00;;;;;;5035214;28;20041;-46
2022/05/13 13:00:57;;;;;;;8.68;3.00;;;18.90;78.20;;;;;;5035178;28;20049;-47
2022/05/13 13:03:24;;;;;;;6.75;2.10;;;18.90;78.30;;;;;;5040644;28;20051;-53
2022/05/13 13:05:51;;;;;;;8.93;1.92;;;18.90;78.70;;;;;;5033625;28;20806;-49
2022/05/13 13:08:17;;;;;;;9.07;2.40;;;18.80;78.00;;;;;;5042160;28;20040;-52
2022/05/13 13:10:44;;;;;;;7.65;1.98;;;18.80;78.60;;;;;;5053960;28;20410;-48
2022/05/13 13:13:11;;;;;;;8.73;2.47;;;18.90;79.30;;;;;;5052824;28;20048;-51
2022/05/13 13:15:38;;;;;;;7.57;1.98;;;19.10;78.50;;;;;;5040406;28;20451;-46
2022/05/13 13:18:05;;;;;;;7.35;4.68;;;19.10;78.90;;;;;;5034881;28;20377;-46
2022/05/13 13:20:32;;;;;;;7.05;2.83;;;19.10;77.70;;;;;;5034787;28;20093;-47
2022/05/13 13:22:59;;;;;;;8.35;2.22;;;19.20;78.90;;;;;;5034797;28;20129;-50
2022/05/13 13:25:25;;;;;;;7.60;2.40;;;19.30;77.70;;;;;;5034579;28;20042;-49
2022/05/13 13:27:52;;;;;;;9.38;2.70;;;19.30;77.80;;;;;;5034669;28;20041;-51
2022/05/13 13:30:19;;;;;;;10.95;2.28;;;19.40;77.20;;;;;;5033557;28;20551;-50
2022/05/13 13:32:46;;;;;;;7.53;2.03;;;19.50;77.70;;;;;;5034315;28;20041;-51
2022/05/13 13:35:12;;;;;;;5.20;1.88;;;19.50;77.00;;;;;;5034558;28;20034;-49
2022/05/13 13:37:40;;;;;;;7.93;2.50;;;19.50;76.60;;;;;;5037409;28;20072;-51
2022/05/13 13:40:06;;;;;;;8.35;2.03;;;19.60;75.00;;;;;;5053621;28;20488;-51
2022/05/13 13:42:33;;;;;;;7.57;2.17;;;19.50;76.30;;;;;;5053240;28;20045;-51
2022/05/13 13:45:03;;;;;;;8.75;2.05;;;19.70;76.20;;;;;;5052107;28;20468;-48
2022/05/13 13:47:30;;;;;;;7.45;2.40;;;19.80;76.00;;;;;;5053483;28;20047;-48
2022/05/13 13:49:57;;;;;;;8.80;2.33;;;20.00;76.80;;;;;;5051963;28;20392;-50
2022/05/13 13:52:23;;;;;;;9.10;2.17;;;20.20;76.80;;;;;;5053203;28;20112;-52
2022/05/13 13:54:50;;;;;;;6.85;1.98;;;20.30;76.30;;;;;;5053163;28;20033;-47
2022/05/13 13:57:17;;;;;;;6.88;2.13;;;20.30;74.50;;;;;;5053020;28;20041;-50
2022/05/13 13:59:44;;;;;;;9.93;2.40;;;20.30;75.30;;;;;;5045859;28;20042;-48
2022/05/13 14:02:11;;;;;;;8.68;2.13;;;20.40;74.90;;;;;;5032769;28;20046;-51
2022/05/13 14:04:40;;;;;;;10.18;1.98;;;20.40;73.90;;;;;;5032705;28;20048;-50
2022/05/13 14:07:07;;;;;;;8.90;2.30;;;20.20;72.50;;;;;;5033834;28;20122;-50
2022/05/13 14:09:33;;;;;;;10.70;2.13;;;20.20;72.40;;;;;;5049545;28;20094;-53
2022/05/13 14:12:00;;;;;;;8.68;2.10;;;20.10;73.30;;;;;;5052811;28;20087;-52
2022/05/13 14:14:47;;;;;;;9.75;2.50;;;20.20;73.00;;;;;;5051252;28;20071;-50
2022/05/13 14:17:14;;;;;;;10.55;2.38;;;20.20;73.10;;;;;;5036617;28;20076;-47
2022/05/13 14:19:41;;;;;;;5.93;1.98;;;20.20;73.00;;;;;;5033643;28;20048;-51
2022/05/13 14:22:10;;;;;;;6.88;2.03;;;20.10;73.10;;;;;;5033787;28;20093;-53
2022/05/13 14:24:37;;;;;;;6.90;1.98;;;20.10;74.30;;;;;;5033908;28;20064;-53
2022/05/13 14:27:04;;;;;;;9.57;2.22;;;20.20;73.70;;;;;;5033916;28;20507;-54
2022/05/13 14:29:31;;;;;;;6.95;2.50;;;20.20;73.70;;;;;;5033956;28;20068;-48
2022/05/13 14:31:58;;;;;;;7.97;2.35;;;20.30;74.00;;;;;;5043819;28;20045;-50
2022/05/13 14:34:24;;;;;;;10.93;2.13;;;20.20;72.50;;;;;;5052919;28;20914;-50
2022/05/13 14:36:51;;;;;;;9.20;2.03;;;20.20;72.40;;;;;;5051577;28;20048;-52
2022/05/13 14:42:03;;;;;;;;;;;20.10;72.70;;;;;;5051936;28;20377;-51
2022/05/13 14:44:30;;;;;;;7.32;1.98;;;20.10;72.80;;;;;;5052764;28;19974;-48
2022/05/13 14:46:57;;;;;;;7.95;2.15;;;20.20;73.80;;;;;;5051588;28;20041;-48
2022/05/13 14:49:24;;;;;;;11.75;2.42;;;20.20;72.90;;;;;;5044381;28;20045;-50
2022/05/13 14:51:50;;;;;;;8.23;2.33;;;20.20;73.20;;;;;;5052493;28;20037;-48
2022/05/13 14:54:17;;;;;;;10.15;2.10;;;20.10;72.80;;;;;;5051164;28;20057;-53
2022/05/13 14:56:44;;;;;;;8.48;2.15;;;20.20;72.80;;;;;;5051976;28;20131;-49
2022/05/13 14:59:11;;;;;;;9.27;2.10;;;20.20;73.00;;;;;;5050459;28;20098;-51
2022/05/13 15:01:38;;;;;;;7.97;1.92;;;20.30;72.80;;;;;;5051255;28;20041;-51
2022/05/13 15:04:05;;;;;;;7.55;2.28;;;20.10;72.60;;;;;;5052256;28;20088;-50
2022/05/13 15:06:31;;;;;;;10.90;2.42;;;20.00;73.70;;;;;;5052164;28;20049;-48
2022/05/13 15:09:00;;;;;;;9.60;2.70;;;20.00;73.60;;;;;;5051645;28;20059;-53
2022/05/13 15:11:27;;;;;;;9.43;2.42;;;20.10;72.80;;;;;;5051781;28;20120;-52
2022/05/13 15:13:53;;;;;;;8.05;2.33;;;20.10;72.40;;;;;;5050068;28;20045;-51
2022/05/13 15:16:20;;;;;;;7.75;2.10;;;20.30;72.60;;;;;;5047495;28;20048;-51
2022/05/13 15:18:48;;;;;;;6.18;1.90;;;20.30;72.60;;;;;;5048617;28;20053;-50
2022/05/13 15:21:15;;;;;;;8.60;2.05;;;20.30;72.00;;;;;;5048793;28;20045;-53
2022/05/13 15:23:42;;;;;;;11.38;2.10;;;20.40;71.80;;;;;;5048956;28;20041;-54
2022/05/13 15:26:08;;;;;;;7.80;2.22;;;20.30;72.30;;;;;;5049168;28;20045;-50
2022/05/13 15:28:35;;;;;;;10.70;2.45;;;20.40;73.40;;;;;;5048991;28;20124;-50
2022/05/13 15:31:02;;;;;;;10.65;2.08;;;20.50;72.80;;;;;;5050505;28;20056;-52
2022/05/13 15:33:29;;;;;;;9.90;2.40;;;20.60;72.80;;;;;;5051934;28;20037;-50
2022/05/13 15:35:56;;;;;;;10.05;2.30;;;20.70;72.80;;;;;;5052360;28;20040;-50
2022/05/13 15:38:22;;;;;;;11.52;2.33;;;20.80;72.60;;;;;;5052171;28;20553;-50
2022/05/13 15:40:49;;;;;;;6.40;2.13;;;20.80;72.10;;;;;;5052175;28;20545;-52
2022/05/13 15:43:16;;;;;;;8.77;2.25;;;20.80;72.60;;;;;;5052028;28;20064;-53
2022/05/13 15:45:43;;;;;;;9.30;2.50;;;21.00;71.90;;;;;;5051927;28;20507;-53
2022/05/13 15:48:11;;;;;;;11.43;2.40;;;21.20;72.30;;;;;;5051967;28;20462;-52
2022/05/13 15:53:23;;;;;;;10.48;2.35;;;21.60;70.90;;;;;;5054680;28;20045;-55
2022/05/13 15:55:49;;;;;;;11.27;2.88;;;22.20;71.10;;;;;;5055813;28;20041;-54
2022/05/13 15:58:18;;;;;;;7.30;2.30;;;22.70;69.00;;;;;;5055509;28;20580;-54
2022/05/13 16:00:45;;;;;;;8.57;2.28;;;22.90;67.80;;;;;;5055676;28;20037;-52
2022/05/13 16:03:12;;;;;;;8.80;2.47;;;22.90;65.80;;;;;;5055600;28;20083;-54
2022/05/13 16:05:39;;;;;;;10.80;2.13;;;23.10;67.10;;;;;;5055286;28;20500;-49
2022/05/13 16:08:07;;;;;;;7.63;2.20;;;23.30;66.30;;;;;;5054421;28;20059;-49
2022/05/13 16:10:34;;;;;;;9.55;2.55;;;23.50;66.70;;;;;;5055425;28;20041;-50
2022/05/13 16:13:00;;;;;;;8.57;1.90;;;23.70;67.00;;;;;;5055340;28;20033;-51
2022/05/13 16:15:27;;;;;;;9.45;2.50;;;23.80;66.40;;;;;;5055485;28;20041;-45
2022/05/13 16:17:54;;;;;;;9.15;2.45;;;24.00;66.40;;;;;;5055397;28;20037;-48
2022/05/13 16:20:21;;;;;;;6.90;2.00;;;23.90;65.00;;;;;;5053924;28;20094;-49
2022/05/13 16:22:48;;;;;;;6.15;2.17;;;24.10;65.60;;;;;;5055062;28;20095;-56
2022/05/13 16:25:15;;;;;;;7.05;1.98;;;24.60;65.20;;;;;;5055088;28;20400;-52
2022/05/13 16:27:42;;;;;;;10.23;2.22;;;24.80;64.00;;;;;;5055274;28;20053;-51
2022/05/13 16:30:09;;;;;;;7.78;2.45;;;24.90;63.50;;;;;;5055065;28;20045;-55
2022/05/13 16:32:36;;;;;;;9.20;2.42;;;24.90;64.30;;;;;;5053619;28;20049;-52
2022/05/13 16:35:02;;;;;;;8.18;2.42;;;24.70;65.00;;;;;;5055138;28;20041;-50
2022/05/13 16:37:41;;;;;;;10.25;2.67;;;24.30;66.20;;;;;;5053608;28;20504;-51
2022/05/13 16:40:08;;;;;;;11.98;2.95;;;24.20;67.20;;;;;;5035419;28;20045;-49
2022/05/13 16:42:35;;;;;;;10.88;2.90;;;24.50;67.30;;;;;;5050327;28;20120;-54
2022/05/13 16:45:02;;;;;;;13.43;2.70;;;24.70;67.40;;;;;;5035350;28;20048;-48
2022/05/13 16:47:29;;;;;;;7.20;2.22;;;24.60;66.70;;;;;;5035763;28;20037;-51
2022/05/13 16:49:56;;;;;;;13.25;2.83;;;24.60;67.10;;;;;;5035674;28;20049;-52
2022/05/13 16:52:23;;;;;;;9.20;2.65;;;24.70;67.00;;;;;;5035409;28;20053;-48
2022/05/13 16:54:50;;;;;;;10.60;2.78;;;24.60;66.30;;;;;;5035490;28;20124;-49
2022/05/13 16:57:17;;;;;;;8.90;2.78;;;24.30;66.80;;;;;;5035431;28;20038;-53
2022/05/13 16:59:44;;;;;;;9.38;2.35;;;24.30;67.60;;;;;;5034358;28;20052;-52
2022/05/13 17:02:11;;;;;;;8.82;2.40;;;24.30;67.40;;;;;;5035364;28;20033;-49
2022/05/13 17:04:38;;;;;;;8.48;2.20;;;24.30;67.20;;;;;;5035330;28;20045;-56
2022/05/13 17:07:05;;;;;;;14.13;2.80;;;24.00;66.80;;;;;;5042804;28;20499;-54
2022/05/13 17:17:48;;;;;;;12.27;2.53;;;23.20;67.90;;;;;;5054267;28;20043;-58
2022/05/13 17:20:15;;;;;;;9.82;2.63;;;22.80;68.30;;;;;;5035004;28;20042;-57
2022/05/13 17:22:42;;;;;;;8.02;2.50;;;22.70;69.80;;;;;;5034428;28;20037;-51
2022/05/13 17:25:09;;;;;;;12.27;2.47;;;22.60;70.60;;;;;;5040946;28;20041;-52
2022/05/13 17:27:36;;;;;;;12.07;3.20;;;22.50;71.00;;;;;;5034816;28;20044;-52
2022/05/13 17:30:03;;;;;;;11.10;2.55;;;22.30;71.60;;;;;;5034487;28;20097;-54
2022/05/13 17:32:30;;;;;;;9.38;2.65;;;22.00;72.20;;;;;;5034368;28;20080;-51
2022/05/13 17:35:00;;;;;;;13.88;2.50;;;22.00;73.00;;;;;;5041335;28;20341;-52
2022/05/13 17:37:30;;;;;;;12.43;2.90;;;22.00;73.30;;;;;;5047580;28;20041;-52
2022/05/13 17:39:56;;;;;;;13.93;3.33;;;22.00;73.30;;;;;;5034784;28;20037;-51
2022/05/13 17:42:23;;;;;;;7.88;2.47;;;22.00;73.90;;;;;;5034506;28;20040;-53
2022/05/13 17:44:50;;;;;;;13.57;2.97;;;22.10;73.90;;;;;;5034578;28;20476;-50
2022/05/13 17:47:17;;;;;;;13.20;3.47;;;22.00;73.80;;;;;;5034626;28;20045;-54
2022/05/13 17:49:49;;;;;;;9.38;2.83;;;21.90;74.00;;;;;;5034708;28;20048;-49
2022/05/13 17:52:16;;;;;;;13.38;2.85;;;21.80;74.40;;;;;;5034493;28;20447;-53
2022/05/13 17:54:43;;;;;;;13.18;3.17;;;21.70;74.90;;;;;;5034338;28;20396;-51
2022/05/13 17:57:09;;;;;;;9.80;2.67;;;21.60;74.80;;;;;;5034200;28;20037;-50
2022/05/13 17:59:36;;;;;;;11.85;3.30;;;21.30;75.40;;;;;;5034420;28;20064;-53
2022/05/13 18:02:03;;;;;;;11.52;3.25;;;21.20;76.00;;;;;;5034099;28;20448;-54
2022/05/13 18:04:31;;;;;;;10.50;2.95;;;20.90;76.40;;;;;;5034197;28;20037;-53
2022/05/13 18:06:57;;;;;;;12.90;3.00;;;20.90;76.90;;;;;;5041232;28;20466;-50
2022/05/13 18:09:24;;;;;;;12.35;3.53;;;20.80;77.20;;;;;;5053078;28;20044;-48
2022/05/13 18:11:51;;;;;;;13.48;2.65;;;20.80;77.50;;;;;;5053050;28;20102;-56
2022/05/13 18:14:18;;;;;;;16.13;3.22;;;20.70;77.20;;;;;;5053057;28;20408;-51
2022/05/13 18:16:44;;;;;;;9.70;2.90;;;20.60;77.50;;;;;;5052610;28;20045;-54
2022/05/13 18:19:11;;;;;;;9.35;2.67;;;20.60;77.70;;;;;;5033931;28;20099;-54
2022/05/13 18:21:38;;;;;;;16.90;3.30;;;20.60;77.80;;;;;;5033154;28;20107;-48
2022/05/13 18:24:05;;;;;;;13.52;3.20;;;20.60;78.40;;;;;;5033482;28;20056;-46
2022/05/13 18:26:32;;;;;;;12.25;2.60;;;20.60;77.70;;;;;;5046033;28;20045;-49
2022/05/13 18:28:59;;;;;;;12.55;3.03;;;20.50;78.00;;;;;;5033437;28;20053;-52
2022/05/13 18:31:25;;;;;;;10.18;3.17;;;20.40;78.50;;;;;;5033306;28;20053;-50
2022/05/13 18:33:52;;;;;;;18.08;2.60;;;20.20;78.90;;;;;;5033389;28;20049;-52
2022/05/13 18:36:23;;;;;;;14.18;3.33;;;20.00;79.30;;;;;;5035634;28;20049;-52
2022/05/13 18:38:50;;;;;;;11.95;3.00;;;19.90;79.90;;;;;;5052623;28;20425;-50
2022/05/13 18:46:47;;;;;;;9.25;3.05;;;19.50;81.20;;;;;;5033555;28;20053;-52
2022/05/13 18:49:14;;;;;;;15.50;3.60;;;19.40;81.90;;;;;;5033440;28;20057;-46
2022/05/13 18:51:41;;;;;;;13.23;3.45;;;19.40;81.90;;;;;;5033420;28;20485;-52
2022/05/13 18:54:08;;;;;;;16.40;3.42;;;19.30;82.20;;;;;;5033378;28;20500;-53
2022/05/13 18:56:35;;;;;;;13.25;3.60;;;19.20;82.60;;;;;;5033321;28;20064;-50
2022/05/13 18:59:02;;;;;;;16.65;3.63;;;19.10;82.70;;;;;;5033351;28;20073;-52
2022/05/13 19:01:29;;;;;;;14.60;3.40;;;19.00;83.10;;;;;;5038663;28;20399;-52
2022/05/13 19:03:56;;;;;;;9.55;3.05;;;18.90;83.40;;;;;;5033182;28;20041;-50
2022/05/13 19:06:23;;;;;;;12.50;3.03;;;18.70;84.00;;;;;;5037993;28;20385;-53
2022/05/13 19:08:50;;;;;;;11.15;2.90;;;18.60;84.40;;;;;;5052328;28;20106;-50
2022/05/13 19:11:17;;;;;;;12.48;2.80;;;18.50;84.80;;;;;;5052379;28;20403;-53
2022/05/13 19:13:51;;;;;;;10.63;2.60;;;18.40;84.80;;;;;;5051294;28;20059;-51
2022/05/13 19:16:18;;;;;;;8.85;2.40;;;18.20;85.00;;;;;;5052272;28;20053;-51
2022/05/13 19:18:45;;;;;;;11.80;2.83;;;18.00;85.50;;;;;;5052336;28;20044;-51
2022/05/13 19:21:12;;;;;;;11.57;2.80;;;18.00;85.80;;;;;;5047336;28;20163;-52
2022/05/13 19:23:39;;;;;;;10.93;3.15;;;17.90;86.20;;;;;;5033238;28;20037;-51
2022/05/13 19:26:06;;;;;;;10.63;2.63;;;17.70;86.90;;;;;;5033239;28;20476;-49
2022/05/13 19:28:37;;;;;;;15.55;3.75;;;17.60;86.90;;;;;;5036296;28;20044;-50
2022/05/13 19:31:04;;;;;;;11.38;3.50;;;17.60;87.40;;;;;;5037135;28;20052;-51
2022/05/13 19:33:31;;;;;;;12.60;3.65;;;17.40;88.20;;;;;;5035676;28;20092;-51
2022/05/13 19:35:58;;;;;;;10.18;3.08;;;17.40;88.10;;;;;;5039398;28;20041;-47
2022/05/13 19:38:24;;;;;;;10.15;2.85;;;17.30;88.30;;;;;;5056069;28;20114;-52
2022/05/13 19:40:51;;;;;;;12.70;3.00;;;17.20;89.10;;;;;;5054612;28;20417;-47
2022/05/13 19:43:18;;;;;;;14.18;3.58;;;17.10;89.20;;;;;;5055805;28;20546;-52
2022/05/13 19:45:50;;;;;;;14.70;3.50;;;17.00;89.40;;;;;;5055788;28;20132;-49
2022/05/13 19:48:17;;;;;;;16.85;3.45;;;17.00;89.90;;;;;;5055918;28;20095;-52
2022/05/13 19:50:44;;;;;;;11.45;3.05;;;16.90;90.00;;;;;;5055780;28;20041;-50
2022/05/13 19:53:11;;;;;;;18.48;4.75;;;16.80;90.10;;;;;;5055655;28;20509;-49
2022/05/13 19:55:38;;;;;;;16.98;4.20;;;16.70;90.40;;;;;;5055600;28;20070;-52
2022/05/13 19:58:04;;;;;;;18.30;4.22;;;16.60;90.40;;;;;;5055620;28;20443;-52
2022/05/13 20:00:37;;;;;;;13.00;3.53;;;16.60;90.50;;;;;;5056145;28;20068;-52
2022/05/13 20:03:04;;;;;;;15.50;3.78;;;16.50;90.70;;;;;;5056246;28;20116;-51
2022/05/13 20:11:02;;;;;;;14.35;3.20;;;16.30;91.10;;;;;;5055629;28;20041;-52
2022/05/13 20:13:29;;;;;;;12.73;2.95;;;16.10;91.40;;;;;;5054148;28;20111;-54
2022/05/13 20:15:56;;;;;;;11.55;3.03;;;16.10;91.40;;;;;;5051201;28;20049;-53
2022/05/13 20:18:22;;;;;;;17.55;3.47;;;16.10;91.60;;;;;;5036218;28;20045;-53
2022/05/13 20:23:35;;;;;;;14.05;3.80;;;15.90;91.90;;;;;;5049059;28;20056;-54
2022/05/13 20:26:01;;;;;;;11.13;3.05;;;15.90;92.00;;;;;;5034823;28;20045;-53
2022/05/13 20:28:28;;;;;;;13.35;3.60;;;15.80;92.10;;;;;;5035780;28;20100;-52
2022/05/13 20:30:55;;;;;;;16.27;3.22;;;15.80;92.40;;;;;;5042373;28;20090;-49
2022/05/13 20:33:22;;;;;;;12.70;3.10;;;15.70;92.40;;;;;;5035532;28;20095;-53
2022/05/13 20:35:48;;;;;;;12.55;3.72;;;15.60;92.50;;;;;;5035621;28;20041;-51
2022/05/13 20:38:19;;;;;;;14.38;3.60;;;15.60;92.60;;;;;;5043218;28;20045;-49
2022/05/13 20:40:46;;;;;;;14.32;4.00;;;15.60;92.80;;;;;;5055099;28;20079;-49
2022/05/13 20:43:12;;;;;;;18.35;3.10;;;15.60;92.80;;;;;;5035966;28;20128;-51
2022/05/13 20:45:39;;;;;;;11.27;3.10;;;15.50;93.00;;;;;;5035486;28;20492;-54
2022/05/13 20:48:06;;;;;;;12.85;3.88;;;15.50;93.00;;;;;;5041905;28;20045;-51
2022/05/13 20:50:33;;;;;;;13.15;3.38;;;15.40;93.20;;;;;;5034500;28;20049;-47
2022/05/13 20:53:02;;;;;;;15.65;3.60;;;15.30;93.40;;;;;;5035873;28;20045;-53
2022/05/13 20:55:29;;;;;;;16.27;3.05;;;15.30;93.40;;;;;;5048502;28;20506;-51
2022/05/13 20:57:55;;;;;;;17.38;3.35;;;15.20;93.60;;;;;;5035254;28;20378;-52
2022/05/13 21:00:22;;;;;;;13.23;3.15;;;15.20;93.80;;;;;;5035029;28;20558;-51
2022/05/13 21:02:49;;;;;;;14.73;3.63;;;15.20;93.90;;;;;;5035318;28;20048;-54
2022/05/13 21:05:17;;;;;;;12.00;2.83;;;15.10;94.00;;;;;;5034887;28;20037;-50
2022/05/13 21:07:46;;;;;;;16.75;3.50;;;15.00;94.10;;;;;;5038462;28;20040;-55
2022/05/13 21:10:13;;;;;;;17.00;3.88;;;15.00;94.10;;;;;;5054403;28;20427;-53
2022/05/13 21:12:40;;;;;;;14.05;3.03;;;15.00;94.30;;;;;;5035030;28;20048;-49
2022/05/13 21:15:07;;;;;;;11.57;3.45;;;15.00;94.40;;;;;;5035121;28;20394;-48
2022/05/13 21:17:35;;;;;;;10.68;2.95;;;14.90;94.50;;;;;;5035036;28;20041;-49
2022/05/13 21:20:01;;;;;;;12.93;3.72;;;14.80;94.50;;;;;;5034777;28;20029;-51
2022/05/13 21:22:28;;;;;;;18.02;3.70;;;14.80;94.80;;;;;;5034534;28;20041;-57
2022/05/13 21:24:55;;;;;;;16.85;3.85;;;14.80;94.80;;;;;;5043227;28;20037;-49
2022/05/13 21:27:22;;;;;;;13.18;3.88;;;14.70;94.90;;;;;;5054160;28;20041;-51
2022/05/13 21:29:48;;;;;;;15.57;4.10;;;14.70;95.00;;;;;;5054042;28;20545;-52
2022/05/13 21:37:46;;;;;;;14.20;4.75;;;14.50;95.50;;;;;;5053755;28;20037;-52
2022/05/13 21:40:13;;;;;;;17.35;3.70;;;14.50;95.60;;;;;;5053543;28;20041;-53
2022/05/13 21:42:40;;;;;;;12.57;3.40;;;14.40;95.60;;;;;;5053567;28;20041;-47
2022/05/13 21:45:07;;;;;;;15.48;3.50;;;14.30;95.70;;;;;;5053601;28;20118;-50
2022/05/13 21:47:34;;;;;;;17.25;4.30;;;14.30;95.90;;;;;;5053770;28;20048;-49
2022/05/13 21:50:01;;;;;;;11.10;3.85;;;14.30;96.00;;;;;;5052742;28;20064;-47
2022/05/13 21:52:28;;;;;;;14.90;3.90;;;14.20;96.00;;;;;;5053476;28;20040;-48
2022/05/13 21:54:55;;;;;;;16.73;4.78;;;14.20;96.00;;;;;;5053474;28;20045;-51
2022/05/13 21:57:21;;;;;;;13.18;3.83;;;14.10;96.00;;;;;;5053455;28;20033;-53
2022/05/13 21:59:51;;;;;;;13.40;3.90;;;14.10;96.10;;;;;;5053424;28;20041;-48
2022/05/13 22:02:18;;;;;;;14.50;4.43;;;14.10;96.00;;;;;;5049038;28;20155;-48
2022/05/13 22:04:45;;;;;;;18.42;4.00;;;14.00;96.00;;;;;;5034051;28;20070;-46
2022/05/13 22:07:12;;;;;;;12.52;3.25;;;13.90;95.40;;;;;;5033376;28;20479;-47
2022/05/13 22:09:38;;;;;;;19.50;4.32;;;13.90;95.20;;;;;;5053079;28;20041;-51
2022/05/13 22:12:05;;;;;;;17.48;4.43;;;13.90;94.80;;;;;;5053066;28;20381;-51
2022/05/13 22:14:32;;;;;;;14.98;4.15;;;13.80;94.20;;;;;;5053176;28;20056;-54
2022/05/13 22:16:58;;;;;;;11.88;3.22;;;13.80;94.00;;;;;;5053053;28;20045;-52
2022/05/13 22:19:25;;;;;;;16.83;4.15;;;13.80;93.90;;;;;;5052920;28;20084;-53
2022/05/13 22:21:52;;;;;;;12.35;4.13;;;13.80;93.80;;;;;;5052792;28;20507;-48
2022/05/13 22:24:22;;;;;;;14.50;3.85;;;13.80;93.80;;;;;;5053008;28;20037;-53
2022/05/13 22:26:48;;;;;;;16.13;3.72;;;13.70;93.70;;;;;;5052943;28;20480;-55
2022/05/13 22:29:15;;;;;;;13.52;3.55;;;13.70;93.70;;;;;;5036032;28;20045;-49
2022/05/13 22:31:43;;;;;;;19.35;3.88;;;13.70;93.70;;;;;;5033712;28;20489;-52
2022/05/13 22:34:10;;;;;;;15.52;3.55;;;13.70;93.70;;;;;;5033714;28;20049;-52
2022/05/13 22:36:36;;;;;;;14.60;3.72;;;13.60;93.80;;;;;;5033754;28;20099;-50
2022/05/13 22:39:03;;;;;;;12.00;3.83;;;13.60;93.80;;;;;;5047119;28;20480;-47
2022/05/13 22:41:30;;;;;;;14.50;3.90;;;13.60;93.80;;;;;;5052604;28;20496;-48
2022/05/13 22:43:57;;;;;;;12.30;3.75;;;13.50;93.80;;;;;;5052587;28;20485;-49
2022/05/13 22:46:26;;;;;;;11.40;3.95;;;13.40;93.80;;;;;;5052633;28;20044;-53
2022/05/13 22:48:53;;;;;;;12.85;3.47;;;13.40;93.80;;;;;;5052534;28;20044;-57
2022/05/13 22:51:20;;;;;;;15.77;4.03;;;13.40;93.90;;;;;;5052629;28;20048;-49
2022/05/13 22:53:47;;;;;;;15.32;3.97;;;13.30;93.90;;;;;;5052589;28;20120;-53
2022/05/13 22:56:14;;;;;;;15.98;3.90;;;13.30;94.00;;;;;;5052646;28;20053;-53
2022/05/13 22:58:40;;;;;;;14.70;3.67;;;13.30;94.00;;;;;;5052491;28;20045;-48
2022/05/13 23:01:07;;;;;;;14.02;3.72;;;13.20;94.00;;;;;;5052262;28;20070;-50
2022/05/13 23:03:35;;;;;;;16.88;4.88;;;13.20;94.10;;;;;;5052263;28;20037;-52
2022/05/13 23:11:35;;;;;;;14.88;4.07;;;13.10;94.30;;;;;;5052369;28;20045;-55
2022/05/13 23:14:01;;;;;;;20.05;4.95;;;13.00;94.30;;;;;;5052292;28;20049;-51
2022/05/13 23:16:28;;;;;;;14.63;3.60;;;13.00;94.50;;;;;;5052208;28;20231;-52
2022/05/13 23:18:55;;;;;;;16.98;3.78;;;13.00;94.60;;;;;;5050892;28;20099;-53
2022/05/13 23:21:22;;;;;;;15.48;4.38;;;12.90;94.60;;;;;;5052195;28;20045;-51
2022/05/13 23:23:49;;;;;;;15.10;3.90;;;12.90;94.80;;;;;;5052369;28;20542;-56
2022/05/13 23:26:16;;;;;;;19.95;4.70;;;12.80;94.90;;;;;;5052257;28;20044;-47
2022/05/13 23:28:43;;;;;;;13.18;3.75;;;12.80;94.90;;;;;;5052289;28;20484;-55
2022/05/13 23:31:10;;;;;;;14.90;3.85;;;12.80;95.00;;;;;;5052281;28;20494;-53
2022/05/13 23:33:36;;;;;;;12.82;3.53;;;12.80;95.00;;;;;;5052160;28;20033;-53
2022/05/13 23:36:03;;;;;;;14.57;4.25;;;12.70;95.00;;;;;;5052091;28;20074;-48
2022/05/13 23:38:30;;;;;;;17.98;3.60;;;12.70;95.10;;;;;;5052022;28;20048;-50
2022/05/13 23:40:57;;;;;;;16.67;3.67;;;12.60;95.10;;;;;;5051972;28;20048;-52
2022/05/13 23:43:26;;;;;;;15.50;3.78;;;12.60;95.10;;;;;;5051943;28;20043;-54
2022/05/13 23:45:53;;;;;;;13.50;3.40;;;12.60;95.20;;;;;;5052028;28;20065;-52
2022/05/13 23:48:21;;;;;;;16.15;3.97;;;12.50;95.30;;;;;;5050898;28;20102;-51
2022/05/13 23:50:48;;;;;;;15.77;4.78;;;12.50;95.20;;;;;;5052023;28;20072;-52
2022/05/13 23:56:00;;;;;;;17.95;4.05;;;12.40;95.40;;;;;;5052135;28;20078;-51
2022/05/13 23:58:27;;;;;;;16.08;3.67;;;12.30;95.40;;;;;;5051852;28;20045;-50
